createdAt,value
2023-04-24T00:01:10.378Z,94150.66
2023-04-24T00:03:38.221Z,94156.13
2023-04-24T00:06:08.015Z,94153.72
2023-04-24T00:08:35.860Z,94154.19
2023-04-24T00:11:02.864Z,94151.31
2023-04-24T00:13:29.826Z,94147.91
2023-04-24T00:15:57.364Z,94152.91
2023-04-24T00:18:24.017Z,94153.53
2023-04-24T00:20:50.799Z,94155.00
2023-04-24T00:23:17.418Z,94146.00
2023-04-24T00:25:44.209Z,94149.06
2023-04-24T00:28:11.305Z,94150.81
2023-04-24T00:30:37.849Z,94147.28
2023-04-24T00:33:05.384Z,94147.59
2023-04-24T00:35:32.425Z,94145.38
2023-04-24T00:37:59.031Z,94147.94
2023-04-24T00:40:25.885Z,94152.44
2023-04-24T00:42:52.715Z,94146.94
2023-04-24T00:45:19.428Z,94140.34
2023-04-24T00:47:46.797Z,94138.91
2023-04-24T00:50:16.103Z,94146.47
2023-04-24T00:52:43.059Z,94142.63
2023-04-24T00:55:10.356Z,94147.94
2023-04-24T00:57:37.939Z,94143.41
2023-04-24T01:00:06.981Z,94141.47
2023-04-24T01:02:35.595Z,94133.13
2023-04-24T01:05:02.675Z,94139.38
2023-04-24T01:07:29.947Z,94137.63
2023-04-24T01:09:57.392Z,94126.19
2023-04-24T01:12:25.562Z,94126.69
2023-04-24T01:14:52.185Z,94129.09
2023-04-24T01:17:18.907Z,94124.91
2023-04-24T01:19:45.946Z,94125.28
2023-04-24T01:22:15.365Z,94123.78
2023-04-24T01:24:43.495Z,94126.69
2023-04-24T01:27:16.061Z,94132.34
2023-04-24T01:29:45.858Z,94131.03
2023-04-24T01:32:13.320Z,94132.00
2023-04-24T01:34:41.524Z,94121.38
2023-04-24T01:37:08.377Z,94124.56
2023-04-24T01:39:35.299Z,94123.28
2023-04-24T01:42:03.475Z,94119.25
2023-04-24T01:44:30.234Z,94127.13
2023-04-24T01:46:57.218Z,94121.19
2023-04-24T01:49:24.484Z,94122.47
2023-04-24T01:51:51.063Z,94121.84
2023-04-24T01:54:17.766Z,94122.97
2023-04-24T01:56:44.833Z,94122.47
2023-04-24T01:59:12.851Z,94130.03
2023-04-24T02:01:40.460Z,94127.66
2023-04-24T02:04:08.780Z,94128.75
2023-04-24T02:06:36.247Z,94128.59
2023-04-24T02:09:04.236Z,94128.00
2023-04-24T02:11:31.066Z,94125.06
2023-04-24T02:13:58.617Z,94123.09
2023-04-24T02:16:25.797Z,94124.72
2023-04-24T02:18:52.684Z,94124.22
2023-04-24T02:21:19.265Z,94124.56
2023-04-24T02:23:46.234Z,94126.00
2023-04-24T02:26:13.566Z,94125.53
2023-04-24T02:28:40.201Z,94126.47
2023-04-24T02:31:07.424Z,94125.81
2023-04-24T02:33:34.428Z,94131.13
2023-04-24T02:36:01.192Z,94130.47
2023-04-24T02:38:28.017Z,94128.25
2023-04-24T02:40:54.729Z,94125.03
2023-04-24T02:43:21.689Z,94128.56
2023-04-24T02:45:48.569Z,94130.81
2023-04-24T02:48:15.122Z,94134.50
2023-04-24T02:50:41.962Z,94139.97
2023-04-24T02:53:08.537Z,94127.44
2023-04-24T02:55:35.394Z,94136.75
2023-04-24T02:58:02.480Z,94135.94
2023-04-24T03:00:29.064Z,94135.63
2023-04-24T03:02:55.884Z,94132.06
2023-04-24T03:05:22.711Z,94138.19
2023-04-24T03:07:49.425Z,94137.69
2023-04-24T03:10:16.099Z,94130.47
2023-04-24T03:12:42.672Z,94130.63
2023-04-24T03:15:10.128Z,94127.06
2023-04-24T03:17:37.929Z,94123.06
2023-04-24T03:20:06.532Z,94118.22
2023-04-24T03:22:33.968Z,94119.84
2023-04-24T03:25:01.904Z,94118.38
2023-04-24T03:27:28.566Z,94111.31
2023-04-24T03:30:04.932Z,94108.75
2023-04-24T03:32:52.485Z,94111.63
2023-04-24T03:35:24.074Z,94108.41
2023-04-24T03:37:51.783Z,94106.97
2023-04-24T03:40:47.750Z,94116.44
2023-04-24T03:43:28.490Z,94105.69
2023-04-24T03:45:57.676Z,94101.84
2023-04-24T03:48:24.790Z,94105.53
2023-04-24T03:50:51.785Z,94112.78
2023-04-24T03:53:18.610Z,94113.56
2023-04-24T03:55:45.355Z,94113.72
2023-04-24T03:58:12.389Z,94112.75
2023-04-24T04:00:41.298Z,94119.38
2023-04-24T04:03:40.255Z,94113.25
2023-04-24T04:06:07.721Z,94115.81
2023-04-24T04:08:34.677Z,94124.97
2023-04-24T04:11:02.900Z,94111.63
2023-04-24T04:13:31.969Z,94112.59
2023-04-24T04:15:58.710Z,94117.91
2023-04-24T04:18:25.674Z,94117.13
2023-04-24T04:20:52.912Z,94117.75
2023-04-24T04:23:19.678Z,94121.63
2023-04-24T04:26:07.135Z,94123.91
2023-04-24T04:28:49.930Z,94128.38
2023-04-24T04:31:16.872Z,94124.56
2023-04-24T04:33:43.606Z,94129.06
2023-04-24T04:36:10.909Z,94133.19
2023-04-24T04:38:44.029Z,94131.25
2023-04-24T04:41:49.878Z,94136.09
2023-04-24T04:44:18.447Z,94134.00
2023-04-24T04:46:45.542Z,94141.09
2023-04-24T04:49:22.709Z,94137.88
2023-04-24T04:51:49.471Z,94144.34
2023-04-24T04:54:16.897Z,94138.84
2023-04-24T04:56:44.041Z,94140.78
2023-04-24T04:59:10.832Z,94147.69
2023-04-24T05:01:39.332Z,94144.16
2023-04-24T05:04:07.831Z,94153.50
2023-04-24T05:06:34.725Z,94147.53
2023-04-24T05:09:01.527Z,94151.09
2023-04-24T05:11:35.490Z,94153.38
2023-04-24T05:14:03.117Z,94153.47
2023-04-24T05:16:35.617Z,94161.66
2023-04-24T05:19:02.449Z,94161.84
2023-04-24T05:21:34.279Z,94163.75
2023-04-24T05:24:01.062Z,94160.06
2023-04-24T05:26:46.972Z,94162.84
2023-04-24T05:29:16.083Z,94161.22
2023-04-24T05:31:45.422Z,94162.19
2023-04-24T05:34:12.500Z,94166.41
2023-04-24T05:36:43.658Z,94165.91
2023-04-24T05:39:10.652Z,94151.91
2023-04-24T05:41:37.460Z,94162.84
2023-04-24T05:44:04.399Z,94166.41
2023-04-24T05:46:31.128Z,94161.44
2023-04-24T05:48:57.813Z,94161.56
2023-04-24T05:51:25.007Z,94168.00
2023-04-24T05:53:51.789Z,94169.13
2023-04-24T05:56:18.846Z,94173.19
2023-04-24T05:58:46.674Z,94178.16
2023-04-24T06:01:17.576Z,94181.84
2023-04-24T06:03:48.408Z,94170.44
2023-04-24T06:06:15.096Z,94180.88
2023-04-24T06:08:43.561Z,94183.63
2023-04-24T06:11:10.770Z,94180.91
2023-04-24T06:13:38.775Z,94187.97
2023-04-24T06:16:44.093Z,94186.38
2023-04-24T06:19:25.747Z,94187.16
2023-04-24T06:21:52.340Z,94177.53
2023-04-24T06:24:18.919Z,94183.31
2023-04-24T06:26:45.544Z,94195.34
2023-04-24T06:29:14.965Z,94197.13
2023-04-24T06:31:41.823Z,94207.13
2023-04-24T06:34:08.456Z,94189.09
2023-04-24T06:36:36.776Z,94193.78
2023-04-24T06:39:03.384Z,94198.91
2023-04-24T06:41:30.347Z,94196.00
2023-04-24T06:43:57.028Z,94195.84
2023-04-24T06:46:26.945Z,94203.56
2023-04-24T06:48:56.957Z,94197.28
2023-04-24T06:51:24.921Z,94202.94
2023-04-24T06:53:52.988Z,94197.09
2023-04-24T06:56:19.728Z,94198.72
2023-04-24T06:58:46.304Z,94201.47
2023-04-24T07:01:13.086Z,94199.66
2023-04-24T07:03:40.082Z,94211.44
2023-04-24T07:06:07.699Z,94200.34
2023-04-24T07:08:34.401Z,94205.47
2023-04-24T07:11:01.583Z,94208.03
2023-04-24T07:13:28.340Z,94219.94
2023-04-24T07:15:56.149Z,94213.50
2023-04-24T07:18:23.381Z,94222.50
2023-04-24T07:20:52.905Z,94231.19
2023-04-24T07:23:20.928Z,94227.00
2023-04-24T07:25:47.897Z,94231.69
2023-04-24T07:28:14.682Z,94230.41
2023-04-24T07:30:41.339Z,94234.72
2023-04-24T07:33:08.229Z,94232.91
2023-04-24T07:35:35.743Z,94226.16
2023-04-24T07:38:02.850Z,94231.84
2023-04-24T07:40:29.616Z,94228.44
2023-04-24T07:42:56.211Z,94234.00
2023-04-24T07:45:24.418Z,94240.88
2023-04-24T07:47:51.976Z,94245.22
2023-04-24T07:50:18.830Z,94242.63
2023-04-24T07:52:45.577Z,94248.16
2023-04-24T07:55:15.081Z,94255.47
2023-04-24T07:57:41.789Z,94247.28
2023-04-24T08:00:10.294Z,94247.59
2023-04-24T08:02:40.243Z,94249.88
2023-04-24T08:05:07.991Z,94257.00
2023-04-24T08:07:36.490Z,94281.03
2023-04-24T08:10:03.685Z,94287.22
2023-04-24T08:12:30.685Z,94284.50
2023-04-24T08:14:57.296Z,94294.47
2023-04-24T08:17:25.417Z,94301.69
2023-04-24T08:19:53.383Z,94298.44
2023-04-24T08:22:20.316Z,94312.38
2023-04-24T08:24:46.938Z,94312.59
2023-04-24T08:27:13.565Z,94311.44
2023-04-24T08:29:40.396Z,94300.59
2023-04-24T08:32:07.806Z,94311.31
2023-04-24T08:34:34.530Z,94309.88
2023-04-24T08:37:01.238Z,94315.16
2023-04-24T08:39:27.958Z,94307.97
2023-04-24T08:41:57.316Z,94319.38
2023-04-24T08:44:24.065Z,94317.19
2023-04-24T08:46:52.423Z,94328.88
2023-04-24T08:49:20.081Z,94329.56
2023-04-24T08:51:48.574Z,94324.25
2023-04-24T08:54:15.512Z,94331.69
2023-04-24T08:56:45.761Z,94330.72
2023-04-24T08:59:13.594Z,94327.50
2023-04-24T09:01:41.888Z,94335.72
2023-04-24T09:04:14.377Z,94334.91
2023-04-24T09:06:41.872Z,94333.09
2023-04-24T09:09:12.548Z,94325.72
2023-04-24T09:11:39.702Z,94329.00
2023-04-24T09:14:07.698Z,94332.19
2023-04-24T09:16:36.537Z,94325.25
2023-04-24T09:19:04.226Z,94318.09
2023-04-24T09:21:35.381Z,94322.06
2023-04-24T09:24:08.224Z,94315.69
2023-04-24T09:26:38.055Z,94303.88
2023-04-24T09:29:05.531Z,94304.09
2023-04-24T09:31:32.867Z,94300.69
2023-04-24T09:34:02.875Z,94291.31
2023-04-24T09:36:38.227Z,94285.38
2023-04-24T09:39:07.113Z,94279.28
2023-04-24T09:41:34.124Z,94282.94
2023-04-24T09:44:23.492Z,94297.13
2023-04-24T09:46:59.817Z,94286.00
2023-04-24T09:49:31.477Z,94293.03
2023-04-24T09:52:12.207Z,94296.44
2023-04-24T09:54:39.576Z,94292.16
2023-04-24T09:57:09.612Z,94280.09
2023-04-24T09:59:37.556Z,94287.75
2023-04-24T10:02:18.351Z,94291.56
2023-04-24T10:04:56.954Z,94284.38
2023-04-24T10:07:27.304Z,94284.72
2023-04-24T10:09:54.867Z,94280.38
2023-04-24T10:12:22.436Z,94270.47
2023-04-24T10:14:50.957Z,94273.59
2023-04-24T10:17:18.567Z,94283.56
2023-04-24T10:19:47.118Z,94295.59
2023-04-24T10:22:16.686Z,94312.66
2023-04-24T10:24:44.991Z,94328.72
2023-04-24T10:27:13.777Z,94334.66
2023-04-24T10:29:42.072Z,94339.41
2023-04-24T10:32:10.760Z,94339.56
2023-04-24T10:34:37.716Z,94332.31
2023-04-24T10:37:10.784Z,94325.75
2023-04-24T10:39:38.463Z,94316.72
2023-04-24T10:42:16.671Z,94310.53
2023-04-24T10:44:43.678Z,94318.91
2023-04-24T10:47:16.489Z,94319.63
2023-04-24T10:49:43.876Z,94312.91
2023-04-24T10:52:10.581Z,94308.56
2023-04-24T10:54:47.104Z,94308.09
2023-04-24T10:57:23.024Z,94308.75
2023-04-24T10:59:52.531Z,94314.56
2023-04-24T11:02:19.490Z,94322.00
2023-04-24T11:04:47.377Z,94316.47
2023-04-24T11:07:14.469Z,94311.88
2023-04-24T11:09:44.038Z,94320.72
2023-04-24T11:12:14.990Z,94331.28
2023-04-24T11:14:57.420Z,94335.00
2023-04-24T11:17:39.209Z,94331.41
2023-04-24T11:20:27.279Z,94317.03
2023-04-24T11:22:56.693Z,94314.44
2023-04-24T11:25:23.936Z,94317.94
2023-04-24T11:27:51.289Z,94318.53
2023-04-24T11:30:21.540Z,94310.75
2023-04-24T11:32:51.359Z,94310.81
2023-04-24T11:35:19.501Z,94329.16
2023-04-24T11:38:07.853Z,94331.09
2023-04-24T11:40:35.148Z,94337.22
2023-04-24T11:43:02.087Z,94341.66
2023-04-24T11:45:30.952Z,94344.00
2023-04-24T11:47:59.774Z,94335.38
2023-04-24T11:50:28.757Z,94334.22
2023-04-24T11:52:57.009Z,94331.81
2023-04-24T11:55:23.942Z,94333.94
2023-04-24T11:57:53.867Z,94326.72
2023-04-24T12:00:23.320Z,94331.38
2023-04-24T12:02:51.401Z,94327.16
2023-04-24T12:05:22.249Z,94320.88
2023-04-24T12:07:49.567Z,94324.72
2023-04-24T12:10:23.933Z,94330.59
2023-04-24T12:12:52.856Z,94326.75
2023-04-24T12:15:21.388Z,94329.41
2023-04-24T12:17:49.110Z,94331.53
2023-04-24T12:20:16.170Z,94339.47
2023-04-24T12:22:51.401Z,94335.03
2023-04-24T12:25:20.286Z,94344.03
2023-04-24T12:27:48.151Z,94340.16
2023-04-24T12:30:17.298Z,94344.75
2023-04-24T12:32:48.605Z,94347.81
2023-04-24T12:35:21.688Z,94351.09
2023-04-24T12:37:48.464Z,94339.84
2023-04-24T12:40:16.027Z,94345.00
2023-04-24T12:42:45.652Z,94350.31
2023-04-24T12:45:13.150Z,94337.63
2023-04-24T12:47:41.072Z,94345.34
2023-04-24T12:50:12.886Z,94336.22
2023-04-24T12:52:40.377Z,94333.28
2023-04-24T12:55:09.082Z,94338.31
2023-04-24T12:57:37.153Z,94335.63
2023-04-24T13:00:05.697Z,94346.06
2023-04-24T13:02:32.611Z,94342.78
2023-04-24T13:05:00.092Z,94342.47
2023-04-24T13:07:27.357Z,94352.81
2023-04-24T13:09:55.687Z,94353.56
2023-04-24T13:12:22.559Z,94365.41
2023-04-24T13:14:49.218Z,94359.81
2023-04-24T13:17:16.359Z,94366.09
2023-04-24T13:19:44.925Z,94358.66
2023-04-24T13:22:13.001Z,94368.47
2023-04-24T13:24:42.036Z,94362.03
2023-04-24T13:27:09.981Z,94357.63
2023-04-24T13:29:37.652Z,94350.06
2023-04-24T13:32:04.692Z,94346.19
2023-04-24T13:34:31.940Z,94343.50
2023-04-24T13:36:59.552Z,94350.13
2023-04-24T13:39:27.024Z,94340.94
2023-04-24T13:41:54.581Z,94344.00
2023-04-24T13:44:22.412Z,94344.25
2023-04-24T13:46:50.830Z,94342.19
2023-04-24T13:49:17.741Z,94336.22
2023-04-24T13:51:45.006Z,94332.53
2023-04-24T13:54:11.800Z,94334.59
2023-04-24T13:56:38.416Z,94338.34
2023-04-24T13:59:05.774Z,94343.09
2023-04-24T14:01:32.418Z,94348.81
2023-04-24T14:03:59.152Z,94343.91
2023-04-24T14:06:25.847Z,94348.13
2023-04-24T14:08:53.301Z,94353.44
2023-04-24T14:11:19.992Z,94355.59
2023-04-24T14:13:47.148Z,94358.69
2023-04-24T14:16:14.285Z,94348.34
2023-04-24T14:18:41.013Z,94352.47
2023-04-24T14:21:07.812Z,94344.00
2023-04-24T14:23:34.435Z,94354.25
2023-04-24T14:26:01.352Z,94352.41
2023-04-24T14:28:28.004Z,94354.00
2023-04-24T14:30:54.717Z,94354.06
2023-04-24T14:33:21.485Z,94352.91
2023-04-24T14:35:48.659Z,94359.47
2023-04-24T14:38:16.250Z,94352.56
2023-04-24T14:43:12.788Z,94351.16
2023-04-24T14:45:41.130Z,94346.97
2023-04-24T14:48:09.284Z,94345.34
2023-04-24T14:50:36.511Z,94362.59
2023-04-24T14:53:03.283Z,94356.53
2023-04-24T14:55:30.019Z,94363.47
2023-04-24T14:57:56.617Z,94361.78
2023-04-24T15:00:26.535Z,94355.25
2023-04-24T15:02:53.464Z,94370.25
2023-04-24T15:05:20.915Z,94372.44
2023-04-24T15:07:47.587Z,94366.75
2023-04-24T15:10:14.403Z,94377.00
2023-04-24T15:12:41.250Z,94378.50
2023-04-24T15:15:09.295Z,94368.75
2023-04-24T15:17:35.981Z,94370.59
2023-04-24T15:20:03.952Z,94375.22
2023-04-24T15:22:30.726Z,94375.06
2023-04-24T15:24:57.415Z,94383.81
2023-04-24T15:27:24.133Z,94378.63
2023-04-24T15:29:50.931Z,94383.69
2023-04-24T15:32:17.787Z,94384.19
2023-04-24T15:34:45.721Z,94384.59
2023-04-24T15:37:12.643Z,94392.19
2023-04-24T15:39:39.262Z,94394.94
2023-04-24T15:42:06.068Z,94388.69
2023-04-24T15:44:32.567Z,94388.34
2023-04-24T15:47:01.679Z,94382.94
2023-04-24T15:49:28.430Z,94392.41
2023-04-24T15:51:55.351Z,94379.59
2023-04-24T15:54:22.037Z,94389.56
2023-04-24T15:56:50.935Z,94390.06
2023-04-24T15:59:18.671Z,94394.66
2023-04-24T16:01:45.249Z,94392.16
2023-04-24T16:04:12.216Z,94391.19
2023-04-24T16:06:39.072Z,94398.19
2023-04-24T16:09:05.911Z,94403.72
2023-04-24T16:11:36.516Z,94391.13
2023-04-24T16:14:03.094Z,94396.09
2023-04-24T16:16:29.626Z,94397.97
2023-04-24T16:18:56.488Z,94410.88
2023-04-24T16:21:23.214Z,94404.28
2023-04-24T16:23:50.337Z,94406.66
2023-04-24T16:26:17.050Z,94415.59
2023-04-24T16:28:43.731Z,94414.56
2023-04-24T16:31:10.535Z,94413.19
2023-04-24T16:33:37.318Z,94416.06
2023-04-24T16:36:05.858Z,94415.19
2023-04-24T16:38:34.137Z,94412.56
2023-04-24T16:41:00.769Z,94408.09
2023-04-24T16:43:27.546Z,94412.66
2023-04-24T16:45:54.508Z,94410.44
2023-04-24T16:48:22.252Z,94409.28
2023-04-24T16:50:48.869Z,94417.81
2023-04-24T16:53:15.430Z,94411.63
2023-04-24T16:55:42.301Z,94418.13
2023-04-24T16:58:08.823Z,94421.63
2023-04-24T17:00:36.880Z,94420.88
2023-04-24T17:03:03.557Z,94421.22
2023-04-24T17:05:30.248Z,94423.81
2023-04-24T17:07:57.091Z,94417.41
2023-04-24T17:10:23.762Z,94416.06
2023-04-24T17:12:51.153Z,94425.28
2023-04-24T17:15:17.705Z,94429.25
2023-04-24T17:17:46.033Z,94419.88
2023-04-24T17:20:21.940Z,94428.06
2023-04-24T17:22:49.840Z,94426.53
2023-04-24T17:25:16.918Z,94424.00
2023-04-24T17:27:44.866Z,94435.63
2023-04-24T17:30:12.050Z,94432.31
2023-04-24T17:32:38.888Z,94439.00
2023-04-24T17:35:06.201Z,94441.19
2023-04-24T17:37:33.776Z,94441.94
2023-04-24T17:40:00.543Z,94441.84
2023-04-24T17:42:27.226Z,94440.56
2023-04-24T17:44:53.840Z,94440.22
2023-04-24T17:47:22.294Z,94442.50
2023-04-24T17:49:48.980Z,94450.09
2023-04-24T17:52:17.625Z,94448.31
2023-04-24T17:54:44.506Z,94448.31
2023-04-24T17:57:11.428Z,94460.72
2023-04-24T17:59:38.103Z,94448.47
2023-04-24T18:02:04.739Z,94464.06
2023-04-24T18:04:31.477Z,94462.28
2023-04-24T18:06:58.412Z,94456.31
2023-04-24T18:09:24.928Z,94455.00
2023-04-24T18:11:51.630Z,94455.63
2023-04-24T18:14:18.597Z,94457.25
2023-04-24T18:16:45.365Z,94460.91
2023-04-24T18:19:12.015Z,94467.63
2023-04-24T18:21:38.782Z,94472.72
2023-04-24T18:24:05.550Z,94472.31
2023-04-24T18:26:32.322Z,94470.97
2023-04-24T18:28:58.954Z,94472.03
2023-04-24T18:31:25.942Z,94475.34
2023-04-24T18:33:54.090Z,94474.34
2023-04-24T18:36:21.308Z,94480.00
2023-04-24T18:38:48.214Z,94481.91
2023-04-24T18:41:15.391Z,94484.03
2023-04-24T18:43:42.028Z,94489.88
2023-04-24T18:46:08.869Z,94487.75
2023-04-24T18:48:35.717Z,94488.41
2023-04-24T18:51:02.272Z,94500.88
2023-04-24T18:53:28.958Z,94503.88
2023-04-24T18:55:55.516Z,94501.97
2023-04-24T18:58:22.039Z,94498.25
2023-04-24T19:00:48.914Z,94505.31
2023-04-24T19:03:15.710Z,94506.19
2023-04-24T19:05:42.601Z,94507.75
2023-04-24T19:08:09.123Z,94515.91
2023-04-24T19:10:36.782Z,94519.28
2023-04-24T19:13:03.824Z,94511.41
2023-04-24T19:15:30.727Z,94511.25
2023-04-24T19:17:57.707Z,94526.09
2023-04-24T19:20:26.027Z,94516.41
2023-04-24T19:22:53.004Z,94519.56
2023-04-24T19:25:19.893Z,94521.16
2023-04-24T19:27:46.579Z,94528.50
2023-04-24T19:30:13.365Z,94527.16
2023-04-24T19:32:39.930Z,94533.94
2023-04-24T19:35:07.311Z,94531.38
2023-04-24T19:37:35.249Z,94529.34
2023-04-24T19:40:02.748Z,94526.94
2023-04-24T19:42:42.458Z,94531.81
2023-04-24T19:45:11.733Z,94530.00
2023-04-24T19:47:38.764Z,94526.06
2023-04-24T19:50:06.330Z,94529.97
2023-04-24T19:52:32.976Z,94527.47
2023-04-24T19:54:59.693Z,94520.78
2023-04-24T19:57:26.627Z,94529.75
2023-04-24T19:59:53.166Z,94523.50
2023-04-24T20:02:20.214Z,94525.00
2023-04-24T20:04:47.083Z,94530.56
2023-04-24T20:07:14.068Z,94533.78
2023-04-24T20:09:40.635Z,94533.66
2023-04-24T20:12:07.448Z,94533.91
2023-04-24T20:14:34.188Z,94529.75
2023-04-24T20:17:01.022Z,94537.47
2023-04-24T20:19:27.646Z,94534.16
2023-04-24T20:21:54.782Z,94540.09
2023-04-24T20:24:21.339Z,94541.94
2023-04-24T20:26:49.935Z,94552.22
2023-04-24T20:29:16.587Z,94547.59
2023-04-24T20:31:43.273Z,94539.66
2023-04-24T20:34:10.461Z,94535.09
2023-04-24T20:36:37.210Z,94534.13
2023-04-24T20:39:06.547Z,94525.81
2023-04-24T20:41:34.077Z,94535.72
2023-04-24T20:44:01.186Z,94534.44
2023-04-24T20:46:28.200Z,94513.94
2023-04-24T20:48:54.863Z,94518.97
2023-04-24T20:51:21.596Z,94515.75
2023-04-24T20:53:49.444Z,94524.00
2023-04-24T20:56:16.703Z,94524.44
2023-04-24T20:58:47.103Z,94530.53
2023-04-24T21:01:14.959Z,94533.94
2023-04-24T21:03:42.537Z,94529.91
2023-04-24T21:06:09.775Z,94534.13
2023-04-24T21:08:37.798Z,94532.09
2023-04-24T21:11:04.662Z,94529.53
2023-04-24T21:13:31.452Z,94536.72
2023-04-24T21:15:58.321Z,94530.53
2023-04-24T21:18:26.167Z,94521.19
2023-04-24T21:20:53.601Z,94525.91
2023-04-24T21:23:20.705Z,94529.13
2023-04-24T21:25:47.668Z,94521.97
2023-04-24T21:28:14.628Z,94521.28
2023-04-24T21:30:41.441Z,94520.47
2023-04-24T21:33:08.168Z,94524.25
2023-04-24T21:35:35.296Z,94532.91
2023-04-24T21:38:01.830Z,94521.19
2023-04-24T21:40:29.127Z,94517.50
2023-04-24T21:42:56.161Z,94515.31
2023-04-24T21:45:23.062Z,94508.31
2023-04-24T21:47:49.736Z,94510.03
2023-04-24T21:50:16.329Z,94504.50
2023-04-24T21:52:43.406Z,94506.00
2023-04-24T21:55:10.027Z,94510.47
2023-04-24T21:57:36.604Z,94520.56
2023-04-24T22:00:06.187Z,94508.16
2023-04-24T22:02:32.785Z,94508.41
2023-04-24T22:05:03.323Z,94501.91
2023-04-24T22:07:30.516Z,94499.75
2023-04-24T22:09:57.149Z,94505.66
2023-04-24T22:12:23.806Z,94503.69
2023-04-24T22:14:50.741Z,94496.09
2023-04-24T22:17:17.418Z,94496.31
2023-04-24T22:19:44.136Z,94499.38
2023-04-24T22:22:10.892Z,94492.03
2023-04-24T22:24:37.540Z,94487.09
2023-04-24T22:27:04.264Z,94489.13
2023-04-24T22:29:31.032Z,94493.19
2023-04-24T22:31:57.766Z,94482.97
2023-04-24T22:34:24.476Z,94478.91
2023-04-24T22:36:51.207Z,94473.59
2023-04-24T22:39:17.838Z,94474.59
2023-04-24T22:41:44.706Z,94473.97
2023-04-24T22:44:11.397Z,94463.22
2023-04-24T22:46:38.311Z,94463.28
2023-04-24T22:49:05.231Z,94462.47
2023-04-24T22:51:35.358Z,94466.22
2023-04-24T22:54:04.838Z,94467.03
2023-04-24T22:56:32.189Z,94462.25
2023-04-24T22:58:59.234Z,94460.97
2023-04-24T23:01:29.512Z,94460.84
2023-04-24T23:03:56.301Z,94457.94
2023-04-24T23:06:23.218Z,94452.19
2023-04-24T23:08:50.019Z,94450.81
2023-04-24T23:11:17.109Z,94451.63
2023-04-24T23:13:44.385Z,94440.47
2023-04-24T23:16:11.139Z,94441.88
2023-04-24T23:18:37.921Z,94445.94
2023-04-24T23:21:04.799Z,94440.94
2023-04-24T23:23:31.410Z,94439.09
2023-04-24T23:25:58.659Z,94443.72
2023-04-24T23:28:26.354Z,94432.94
2023-04-24T23:30:53.070Z,94431.75
2023-04-24T23:33:19.898Z,94431.09
2023-04-24T23:35:46.644Z,94419.44
2023-04-24T23:38:13.327Z,94417.44
2023-04-24T23:40:40.048Z,94418.78
2023-04-24T23:43:08.183Z,94416.78
2023-04-24T23:45:36.018Z,94400.72
2023-04-24T23:48:04.160Z,94395.78
2023-04-24T23:50:30.909Z,94400.09
2023-04-24T23:52:57.799Z,94413.59
2023-04-24T23:55:24.633Z,94406.47
2023-04-24T23:57:51.468Z,94420.63
